Terminal Aerodrome Forecast
Issued by NWS Indianapolis, IN

Home | Current Version | Previous Version | Text Only | Print | Product List | Glossary On
Versions: 1 2 3 4 5 6 7 8 9 10 11 12 13 14 15 16 17 18 19 20 21 22 23 24 25 26 27 28 29 30 31 32 33 34 35
649
FTUS43 KIND 201120
TAFIND
TAF
KIND 201120Z 2012/2118 22004KT 3SM BR VCSH OVC004
     FM201400 23005KT 3SM BR OVC004
     FM201800 23008KT 4SM BR OVC008
     FM202300 19005KT 5SM BR OVC008
     FM210400 16006KT 5SM BR OVC010=

USA.gov is the U.S. government's official web portal to all federal, state and local government web resources and services.